createdAt,value
2022-11-19T00:00:02.298Z,7.03
2022-11-19T00:01:02.301Z,7.00
2022-11-19T00:02:09.032Z,7.03
2022-11-19T00:03:02.269Z,7.03
2022-11-19T00:04:02.259Z,7.02
2022-11-19T00:05:02.244Z,7.02
2022-11-19T00:06:02.260Z,7.03
2022-11-19T00:07:02.249Z,7.03
2022-11-19T00:08:02.201Z,7.05
2022-11-19T00:09:02.216Z,7.06
2022-11-19T00:10:02.183Z,7.06
2022-11-19T00:11:05.392Z,7.07
2022-11-19T00:12:03.176Z,7.07
2022-11-19T00:13:02.138Z,7.05
2022-11-19T00:14:02.145Z,7.00
2022-11-19T00:15:02.132Z,6.99
2022-11-19T00:16:02.151Z,6.99
2022-11-19T00:17:02.124Z,7.00
2022-11-19T00:18:03.054Z,7.00
2022-11-19T00:19:02.151Z,7.00
2022-11-19T00:20:02.075Z,7.02
2022-11-19T00:21:02.078Z,6.99
2022-11-19T00:22:02.071Z,6.97
2022-11-19T00:23:02.041Z,6.96
2022-11-19T00:24:02.026Z,6.92
2022-11-19T00:25:02.033Z,6.88
2022-11-19T00:26:02.016Z,6.87
2022-11-19T00:27:02.027Z,6.84
2022-11-19T00:28:01.991Z,6.84
2022-11-19T00:29:01.976Z,6.82
2022-11-19T00:30:02.355Z,6.79
2022-11-19T00:31:01.969Z,6.79
2022-11-19T00:32:01.974Z,6.78
2022-11-19T00:33:01.937Z,6.77
2022-11-19T00:34:01.929Z,6.75
2022-11-19T00:35:01.930Z,6.74
2022-11-19T00:36:01.930Z,6.74
2022-11-19T00:37:01.902Z,6.72
2022-11-19T00:38:01.874Z,6.70
2022-11-19T00:39:01.891Z,6.69
2022-11-19T00:40:01.912Z,6.66
2022-11-19T00:41:01.881Z,6.63
2022-11-19T00:42:01.841Z,6.64
2022-11-19T00:43:01.838Z,6.66
2022-11-19T00:44:01.810Z,6.64
2022-11-19T00:45:01.838Z,6.63
2022-11-19T00:46:01.799Z,6.64
2022-11-19T00:47:01.790Z,6.66
2022-11-19T00:48:01.760Z,6.67
2022-11-19T00:49:01.781Z,6.69
2022-11-19T00:50:01.794Z,6.66
2022-11-19T00:51:01.730Z,6.64
2022-11-19T00:52:01.721Z,6.60
2022-11-19T00:53:01.716Z,6.60
2022-11-19T00:54:01.694Z,6.59
2022-11-19T00:55:01.691Z,6.57
2022-11-19T00:56:01.780Z,6.56
2022-11-19T00:57:03.638Z,6.52
2022-11-19T00:58:01.659Z,6.51
2022-11-19T00:59:01.711Z,6.49
2022-11-19T01:00:01.625Z,6.48
2022-11-19T01:01:01.710Z,6.42
2022-11-19T01:02:01.695Z,6.39
2022-11-19T01:03:01.605Z,6.36
2022-11-19T01:04:01.597Z,6.33
2022-11-19T01:05:01.580Z,6.30
2022-11-19T01:06:01.937Z,6.30
2022-11-19T01:07:01.640Z,6.30
2022-11-19T01:08:01.544Z,6.27
2022-11-19T01:09:01.543Z,6.20
2022-11-19T01:10:01.534Z,6.20
2022-11-19T01:11:01.616Z,6.17
2022-11-19T01:12:01.538Z,6.16
2022-11-19T01:13:01.496Z,6.16
2022-11-19T01:14:01.468Z,6.16
2022-11-19T01:15:01.496Z,6.17
2022-11-19T01:16:01.446Z,6.22
2022-11-19T01:17:01.470Z,6.26
2022-11-19T01:18:01.435Z,6.27
2022-11-19T01:19:01.423Z,6.27
2022-11-19T01:20:01.447Z,6.27
2022-11-19T01:21:01.420Z,6.27
2022-11-19T01:22:01.392Z,6.26
2022-11-19T01:23:01.387Z,6.26
2022-11-19T01:24:01.378Z,6.28
2022-11-19T01:25:01.359Z,6.28
2022-11-19T01:26:01.339Z,6.30
2022-11-19T01:27:01.334Z,6.30
2022-11-19T01:28:01.346Z,6.30
2022-11-19T01:29:01.341Z,6.30
2022-11-19T01:30:01.314Z,6.30
2022-11-19T01:31:01.296Z,6.30
2022-11-19T01:32:01.275Z,6.31
2022-11-19T01:33:01.275Z,6.31
2022-11-19T01:34:01.255Z,6.31
2022-11-19T01:35:01.298Z,6.30
2022-11-19T01:36:01.221Z,6.30
2022-11-19T01:37:01.218Z,6.30
2022-11-19T01:38:01.243Z,6.30
2022-11-19T01:39:01.228Z,6.30
2022-11-19T01:40:01.190Z,6.28
2022-11-19T01:41:01.203Z,6.27
2022-11-19T01:42:01.185Z,6.26
2022-11-19T01:43:01.159Z,6.27
2022-11-19T01:44:01.149Z,6.27
2022-11-19T01:45:01.187Z,6.27
2022-11-19T01:46:01.132Z,6.27
2022-11-19T01:47:02.058Z,6.27
2022-11-19T01:48:01.093Z,6.26
2022-11-19T01:49:01.082Z,6.24
2022-11-19T01:50:01.101Z,6.26
2022-11-19T01:51:01.095Z,6.26
2022-11-19T01:52:01.053Z,6.24
2022-11-19T01:53:01.074Z,6.22
2022-11-19T01:54:01.018Z,6.22
2022-11-19T01:55:01.024Z,6.20
2022-11-19T01:56:01.010Z,6.20
2022-11-19T01:57:01.014Z,6.16
2022-11-19T01:58:01.040Z,6.16
2022-11-19T01:59:01.003Z,6.19
2022-11-19T02:00:00.994Z,6.16
2022-11-19T02:01:01.001Z,6.14
2022-11-19T02:02:00.984Z,6.12
2022-11-19T02:03:00.936Z,6.12
2022-11-19T02:04:00.916Z,6.09
2022-11-19T02:05:00.907Z,6.08
2022-11-19T02:06:00.894Z,6.05
2022-11-19T02:07:00.935Z,6.04
2022-11-19T02:08:00.901Z,6.02
2022-11-19T02:09:00.867Z,5.99
2022-11-19T02:10:00.853Z,5.94
2022-11-19T02:11:00.841Z,5.91
2022-11-19T02:12:00.839Z,5.89
2022-11-19T02:13:00.847Z,5.84
2022-11-19T02:14:00.811Z,5.82
2022-11-19T02:15:00.807Z,5.80
2022-11-19T02:16:00.778Z,5.79
2022-11-19T02:17:00.863Z,5.75
2022-11-19T02:18:00.944Z,5.73
2022-11-19T02:19:00.753Z,5.71
2022-11-19T02:20:00.846Z,5.73
2022-11-19T02:21:00.816Z,5.72
2022-11-19T02:22:00.731Z,5.75
2022-11-19T02:23:00.703Z,5.73
2022-11-19T02:24:00.709Z,5.72
2022-11-19T02:25:00.693Z,5.72
2022-11-19T02:26:00.706Z,5.71
2022-11-19T02:27:00.674Z,5.71
2022-11-19T02:28:00.660Z,5.69
2022-11-19T02:29:00.652Z,5.69
2022-11-19T02:30:00.664Z,5.68
2022-11-19T02:31:00.621Z,5.64
2022-11-19T02:32:00.602Z,5.61
2022-11-19T02:33:00.586Z,5.59
2022-11-19T02:34:00.582Z,5.59
2022-11-19T02:35:00.570Z,5.56
2022-11-19T02:36:00.593Z,5.54
2022-11-19T02:37:00.543Z,5.51
2022-11-19T02:38:00.552Z,5.50
2022-11-19T02:39:00.527Z,5.46
2022-11-19T02:40:00.526Z,5.44
2022-11-19T02:41:00.526Z,5.44
2022-11-19T02:42:00.497Z,5.43
2022-11-19T02:43:00.507Z,5.43
2022-11-19T02:44:00.484Z,5.41
2022-11-19T02:45:00.467Z,5.39
2022-11-19T02:46:00.463Z,5.36
2022-11-19T02:47:00.485Z,5.35
2022-11-19T02:48:00.467Z,5.30
2022-11-19T02:49:00.413Z,5.30
2022-11-19T02:50:00.423Z,5.29
2022-11-19T02:51:00.395Z,5.29
2022-11-19T02:52:00.379Z,5.28
2022-11-19T02:53:00.367Z,5.26
2022-11-19T02:54:00.400Z,5.25
2022-11-19T02:55:00.347Z,5.25
2022-11-19T02:56:00.344Z,5.26
2022-11-19T02:57:00.310Z,5.23
2022-11-19T02:58:00.306Z,5.26
2022-11-19T02:59:00.291Z,5.26
2022-11-19T03:00:00.288Z,5.23
2022-11-19T03:01:00.367Z,5.21
2022-11-19T03:02:00.302Z,5.21
2022-11-19T03:03:00.260Z,5.20
2022-11-19T03:04:00.264Z,5.18
2022-11-19T03:05:00.233Z,5.18
2022-11-19T03:06:00.248Z,5.17
2022-11-19T03:07:00.279Z,5.18
2022-11-19T03:08:00.236Z,5.18
2022-11-19T03:09:00.202Z,5.18
2022-11-19T03:10:00.196Z,5.20
2022-11-19T03:11:00.179Z,5.20
2022-11-19T03:12:00.213Z,5.18
2022-11-19T03:13:00.140Z,5.17
2022-11-19T03:14:00.153Z,5.15
2022-11-19T03:15:00.157Z,5.17
2022-11-19T03:16:00.128Z,5.15
2022-11-19T03:17:00.105Z,5.15
2022-11-19T03:18:00.126Z,5.15
2022-11-19T03:19:00.078Z,5.15
2022-11-19T03:20:00.083Z,5.12
2022-11-19T03:21:00.135Z,5.11
2022-11-19T03:22:00.066Z,5.08
2022-11-19T03:23:00.072Z,5.05
2022-11-19T03:24:00.038Z,5.04
2022-11-19T03:25:00.022Z,4.99
2022-11-19T03:26:00.012Z,5.00
2022-11-19T03:26:59.997Z,4.99
2022-11-19T03:28:00.005Z,5.00
2022-11-19T03:29:00.008Z,4.99
2022-11-19T03:29:59.970Z,4.97
2022-11-19T03:30:59.962Z,4.97
2022-11-19T03:31:59.941Z,4.99
2022-11-19T03:32:59.925Z,4.97
2022-11-19T03:33:59.946Z,4.99
2022-11-19T03:34:59.912Z,4.99
2022-11-19T03:35:59.907Z,4.94
2022-11-19T03:36:59.892Z,4.93
2022-11-19T03:37:59.877Z,4.90
2022-11-19T03:38:59.918Z,4.89
2022-11-19T03:39:59.875Z,4.90
2022-11-19T03:40:59.852Z,4.89
2022-11-19T03:41:59.837Z,4.89
2022-11-19T03:42:59.814Z,4.86
2022-11-19T03:43:59.843Z,4.84
2022-11-19T03:44:59.792Z,4.86
2022-11-19T03:45:59.790Z,4.87
2022-11-19T03:46:59.775Z,4.86
2022-11-19T03:47:59.767Z,4.84
2022-11-19T03:48:59.752Z,4.86
2022-11-19T03:49:59.796Z,4.80
2022-11-19T03:50:59.733Z,4.80
2022-11-19T03:51:59.725Z,4.78
2022-11-19T03:53:04.143Z,4.74
2022-11-19T03:53:59.709Z,4.73
2022-11-19T03:54:59.687Z,4.73
2022-11-19T03:55:59.730Z,4.73
2022-11-19T03:56:59.671Z,4.73
2022-11-19T03:57:59.688Z,4.74
2022-11-19T03:58:59.637Z,4.74
2022-11-19T03:59:59.652Z,4.75
2022-11-19T04:00:59.624Z,4.73
2022-11-19T04:01:59.680Z,4.75
2022-11-19T04:02:59.630Z,4.74
2022-11-19T04:04:00.557Z,4.73
2022-11-19T04:04:59.576Z,4.73
2022-11-19T04:05:59.572Z,4.68
2022-11-19T04:06:59.578Z,4.70
2022-11-19T04:07:59.548Z,4.67
2022-11-19T04:08:59.577Z,4.67
2022-11-19T04:09:59.528Z,4.66
2022-11-19T04:11:34.889Z,4.70
2022-11-19T04:12:34.869Z,4.66
2022-11-19T04:13:34.860Z,4.66
2022-11-19T04:14:34.857Z,4.67
2022-11-19T04:15:34.840Z,4.66
2022-11-19T04:16:34.909Z,4.66
2022-11-19T04:17:34.820Z,4.66
2022-11-19T04:18:34.800Z,4.63
2022-11-19T04:19:34.816Z,4.62
2022-11-19T04:20:34.807Z,4.63
2022-11-19T04:21:34.776Z,4.63
2022-11-19T04:22:34.767Z,4.62
2022-11-19T04:23:34.748Z,4.62
2022-11-19T04:24:34.732Z,4.62
2022-11-19T04:25:34.775Z,4.62
2022-11-19T04:26:34.720Z,4.62
2022-11-19T04:27:34.729Z,4.62
2022-11-19T04:28:34.699Z,4.62
2022-11-19T04:29:34.684Z,4.60
2022-11-19T04:30:34.684Z,4.62
2022-11-19T04:31:34.652Z,4.63
2022-11-19T04:32:34.681Z,4.62
2022-11-19T04:33:34.639Z,4.62
2022-11-19T04:34:34.627Z,4.63
2022-11-19T04:35:34.620Z,4.63
2022-11-19T04:36:34.597Z,4.62
2022-11-19T04:37:34.591Z,4.62
2022-11-19T04:38:34.600Z,4.62
2022-11-19T04:39:34.577Z,4.59
2022-11-19T04:40:34.571Z,4.59
2022-11-19T04:41:34.574Z,4.58
2022-11-19T04:42:34.570Z,4.59
2022-11-19T04:43:34.522Z,4.58
2022-11-19T04:44:34.531Z,4.58
2022-11-19T04:45:34.510Z,4.60
2022-11-19T04:46:34.496Z,4.60
2022-11-19T04:47:34.473Z,4.60
2022-11-19T04:48:34.493Z,4.60
2022-11-19T04:49:34.511Z,4.59
2022-11-19T04:50:34.466Z,4.59
2022-11-19T04:51:34.435Z,4.58
2022-11-19T04:52:40.294Z,4.58
2022-11-19T04:53:35.415Z,4.55
2022-11-19T04:54:34.393Z,4.56
2022-11-19T04:55:34.438Z,4.56
2022-11-19T04:56:34.383Z,4.55
2022-11-19T04:57:34.365Z,4.53
2022-11-19T04:58:34.365Z,4.50
2022-11-19T04:59:35.296Z,4.50
2022-11-19T05:00:34.349Z,4.48
2022-11-19T05:01:34.401Z,4.45
2022-11-19T05:02:34.361Z,4.45
2022-11-19T05:03:34.307Z,4.45
2022-11-19T05:04:34.280Z,4.44
2022-11-19T05:05:34.307Z,4.42
2022-11-19T05:06:34.265Z,4.41
2022-11-19T05:07:34.338Z,4.40
2022-11-19T05:08:34.296Z,4.35
2022-11-19T05:09:34.252Z,4.34
2022-11-19T05:10:34.222Z,4.32
2022-11-19T05:11:34.218Z,4.32
2022-11-19T05:12:34.221Z,4.30
2022-11-19T05:13:34.197Z,4.31
2022-11-19T05:14:34.220Z,4.30
2022-11-19T05:15:34.226Z,4.28
2022-11-19T05:16:34.208Z,4.28
2022-11-19T05:17:34.162Z,4.30
2022-11-19T05:18:34.137Z,4.30
2022-11-19T05:19:34.143Z,4.32
2022-11-19T05:20:34.112Z,4.31
2022-11-19T05:21:34.098Z,4.31
2022-11-19T05:22:34.099Z,4.31
2022-11-19T05:23:34.143Z,4.31
2022-11-19T05:24:34.098Z,4.32
2022-11-19T05:25:34.088Z,4.31
2022-11-19T05:26:34.053Z,4.31
2022-11-19T05:27:34.039Z,4.31
2022-11-19T05:28:38.997Z,4.28
2022-11-19T05:29:35.262Z,4.31
2022-11-19T05:30:34.000Z,4.30
2022-11-19T05:31:33.988Z,4.30
2022-11-19T05:32:33.975Z,4.28
2022-11-19T05:33:34.647Z,4.28
2022-11-19T05:34:33.984Z,4.23
2022-11-19T05:35:33.984Z,4.24
2022-11-19T05:36:33.934Z,4.22
2022-11-19T05:37:33.936Z,4.23
2022-11-19T05:38:33.925Z,4.23
2022-11-19T05:39:33.909Z,4.23
2022-11-19T05:40:33.926Z,4.23
2022-11-19T05:41:33.882Z,4.23
2022-11-19T05:42:33.871Z,4.24
2022-11-19T05:43:33.870Z,4.23
2022-11-19T05:44:33.842Z,4.20
2022-11-19T05:45:33.844Z,4.19
2022-11-19T05:46:33.862Z,4.20
2022-11-19T05:47:33.846Z,4.19
2022-11-19T05:48:33.813Z,4.19
2022-11-19T05:49:33.798Z,4.19
2022-11-19T05:50:33.812Z,4.17
2022-11-19T05:51:33.767Z,4.19
2022-11-19T05:52:33.760Z,4.19
2022-11-19T05:53:33.762Z,4.19
2022-11-19T05:54:33.776Z,4.20
2022-11-19T05:55:33.875Z,4.22
2022-11-19T05:56:33.749Z,4.20
2022-11-19T05:57:33.714Z,4.17
2022-11-19T05:58:33.695Z,4.16
2022-11-19T05:59:33.686Z,4.14
2022-11-19T06:00:33.738Z,4.16
2022-11-19T06:01:33.690Z,4.14
2022-11-19T06:02:33.709Z,4.16
2022-11-19T06:03:33.637Z,4.14
2022-11-19T06:04:33.699Z,4.14
2022-11-19T06:05:38.745Z,4.14
2022-11-19T06:06:34.615Z,4.16
2022-11-19T06:07:33.649Z,4.14
2022-11-19T06:08:33.618Z,4.13
2022-11-19T06:09:34.380Z,4.14
2022-11-19T06:10:33.556Z,4.12
2022-11-19T06:11:33.545Z,4.12
2022-11-19T06:12:33.527Z,4.13
2022-11-19T06:13:33.535Z,4.16
2022-11-19T06:14:33.539Z,4.14
2022-11-19T06:15:33.507Z,4.16
2022-11-19T06:16:33.489Z,4.14
2022-11-19T06:17:33.499Z,4.14
2022-11-19T06:18:33.534Z,4.16
2022-11-19T06:19:33.478Z,4.16
2022-11-19T06:20:33.479Z,4.16
2022-11-19T06:21:33.531Z,4.17
2022-11-19T06:22:33.471Z,4.16
2022-11-19T06:23:33.490Z,4.19
2022-11-19T06:24:33.761Z,4.19
2022-11-19T06:25:33.397Z,4.19
2022-11-19T06:26:33.699Z,4.20
2022-11-19T06:27:34.842Z,4.20
2022-11-19T06:28:34.303Z,4.19
2022-11-19T06:29:34.799Z,4.20
2022-11-19T06:30:33.379Z,4.19
2022-11-19T06:31:33.462Z,4.19
2022-11-19T06:32:33.333Z,4.17
2022-11-19T06:33:33.301Z,4.17
2022-11-19T06:34:34.243Z,4.16
2022-11-19T06:35:33.290Z,4.13
2022-11-19T06:36:39.048Z,4.13
2022-11-19T06:37:34.287Z,4.12
2022-11-19T06:38:33.306Z,4.10
2022-11-19T06:39:33.241Z,4.10
2022-11-19T06:40:33.245Z,4.06
2022-11-19T06:41:33.231Z,4.04
2022-11-19T06:42:33.224Z,4.02
2022-11-19T06:43:33.243Z,4.02
2022-11-19T06:44:33.177Z,4.02
2022-11-19T06:45:34.122Z,3.99
2022-11-19T06:46:34.143Z,4.02
2022-11-19T06:47:33.193Z,4.01
2022-11-19T06:48:33.181Z,4.02
2022-11-19T06:49:33.264Z,4.02
2022-11-19T06:50:34.046Z,4.02
2022-11-19T06:51:33.194Z,4.02
2022-11-19T06:52:34.541Z,4.02
2022-11-19T06:53:33.137Z,4.01
2022-11-19T06:54:36.730Z,3.99
2022-11-19T06:55:34.061Z,3.99
2022-11-19T06:56:33.056Z,3.99
2022-11-19T06:57:33.849Z,3.99
2022-11-19T06:58:33.258Z,3.99
2022-11-19T06:59:33.143Z,3.99
2022-11-19T07:00:33.010Z,3.98
2022-11-19T07:01:33.054Z,3.99
2022-11-19T07:02:33.347Z,3.98
2022-11-19T07:03:34.188Z,3.98
2022-11-19T07:04:32.959Z,3.98
2022-11-19T07:05:32.973Z,3.98
2022-11-19T07:06:32.951Z,3.96
2022-11-19T07:07:32.968Z,3.96
2022-11-19T07:08:33.360Z,3.96
2022-11-19T07:09:32.904Z,3.96
2022-11-19T07:10:32.899Z,3.95
2022-11-19T07:11:32.911Z,3.96
2022-11-19T07:12:32.877Z,3.95
2022-11-19T07:13:32.884Z,3.96
2022-11-19T07:14:32.879Z,3.96
2022-11-19T07:15:33.033Z,3.95
2022-11-19T07:16:33.100Z,3.91
2022-11-19T07:17:32.839Z,3.92
2022-11-19T07:18:32.843Z,3.92
2022-11-19T07:19:33.419Z,3.94
2022-11-19T07:20:32.794Z,3.92
2022-11-19T07:21:32.780Z,3.92
2022-11-19T07:22:34.212Z,3.92
2022-11-19T07:23:32.764Z,3.91
2022-11-19T07:24:32.733Z,3.87
2022-11-19T07:25:32.765Z,3.84
2022-11-19T07:26:32.720Z,3.83
2022-11-19T07:27:32.711Z,3.84
2022-11-19T07:28:32.695Z,3.84
2022-11-19T07:29:32.770Z,3.87
2022-11-19T07:30:32.854Z,3.87
2022-11-19T07:31:32.706Z,3.88
2022-11-19T07:32:32.662Z,3.91
2022-11-19T07:33:33.267Z,3.91
2022-11-19T07:34:32.638Z,3.91
2022-11-19T07:35:33.202Z,3.92
2022-11-19T07:36:32.862Z,3.94
2022-11-19T07:37:32.818Z,3.95
2022-11-19T07:38:36.770Z,3.95
2022-11-19T07:39:32.577Z,3.95
2022-11-19T07:40:32.622Z,3.95
2022-11-19T07:41:32.558Z,3.96
2022-11-19T07:42:32.557Z,3.96
2022-11-19T07:43:32.568Z,3.94
2022-11-19T07:44:32.702Z,3.95
2022-11-19T07:45:32.497Z,3.96
2022-11-19T07:46:32.503Z,4.06
2022-11-19T07:47:32.494Z,4.12
2022-11-19T07:48:32.490Z,4.13
2022-11-19T07:49:32.498Z,4.14
2022-11-19T07:50:32.913Z,4.16
2022-11-19T07:51:33.890Z,4.14
2022-11-19T07:52:32.423Z,4.16
2022-11-19T07:53:32.418Z,4.16
2022-11-19T07:54:32.423Z,4.13
2022-11-19T07:55:32.438Z,4.14
2022-11-19T07:56:32.396Z,4.13
2022-11-19T07:57:32.380Z,4.12
2022-11-19T07:58:32.367Z,4.12
2022-11-19T07:59:32.370Z,4.10
2022-11-19T08:00:32.343Z,4.10
2022-11-19T08:01:32.381Z,4.12
2022-11-19T08:02:32.339Z,4.10
2022-11-19T08:03:32.308Z,4.12
2022-11-19T08:04:32.297Z,4.12
2022-11-19T08:05:32.316Z,4.14
2022-11-19T08:06:32.311Z,4.13
2022-11-19T08:07:32.437Z,4.13
2022-11-19T08:08:32.246Z,4.08
2022-11-19T08:09:32.306Z,4.06
2022-11-19T08:10:32.240Z,4.08
2022-11-19T08:11:32.250Z,4.10
2022-11-19T08:12:32.383Z,4.10
2022-11-19T08:13:32.278Z,4.10
2022-11-19T08:14:32.204Z,4.10
2022-11-19T08:15:32.170Z,4.08
2022-11-19T08:16:32.385Z,4.08
2022-11-19T08:17:32.154Z,4.10
2022-11-19T08:18:32.413Z,4.13
2022-11-19T08:19:32.136Z,4.14
2022-11-19T08:20:32.277Z,4.19
2022-11-19T08:21:32.114Z,4.17
2022-11-19T08:22:32.294Z,4.17
2022-11-19T08:23:32.136Z,4.16
2022-11-19T08:24:32.090Z,4.16
2022-11-19T08:25:32.097Z,4.16
2022-11-19T08:26:32.080Z,4.14
2022-11-19T08:27:32.092Z,4.14
2022-11-19T08:28:32.100Z,4.14
2022-11-19T08:29:32.024Z,4.12
2022-11-19T08:30:32.034Z,4.10
2022-11-19T08:31:32.268Z,4.10
2022-11-19T08:32:31.987Z,4.12
2022-11-19T08:33:32.025Z,4.12
2022-11-19T08:34:31.970Z,4.12
2022-11-19T08:35:31.974Z,4.14
2022-11-19T08:36:31.957Z,4.16
2022-11-19T08:37:31.936Z,4.17
2022-11-19T08:38:37.246Z,4.19
2022-11-19T08:39:32.941Z,4.19
2022-11-19T08:40:31.929Z,4.19
2022-11-19T08:41:31.884Z,4.20
2022-11-19T08:42:31.875Z,4.20
2022-11-19T08:43:32.829Z,4.20
2022-11-19T08:44:31.896Z,4.17
2022-11-19T08:45:32.843Z,4.20
2022-11-19T08:46:32.023Z,4.20
2022-11-19T08:47:31.820Z,4.17
2022-11-19T08:48:31.841Z,4.16
2022-11-19T08:49:31.792Z,4.16
2022-11-19T08:50:31.789Z,4.13
2022-11-19T08:51:31.805Z,4.13
2022-11-19T08:52:31.769Z,4.10
2022-11-19T08:53:31.756Z,4.12
2022-11-19T08:54:31.744Z,4.10
2022-11-19T08:55:31.731Z,4.12
2022-11-19T08:56:32.000Z,4.14
2022-11-19T08:57:31.715Z,4.16
2022-11-19T08:58:31.722Z,4.16
2022-11-19T08:59:31.675Z,4.19
2022-11-19T09:00:31.859Z,4.20
2022-11-19T09:01:31.708Z,4.20
2022-11-19T09:02:31.695Z,4.19
2022-11-19T09:03:31.664Z,4.20
2022-11-19T09:04:33.083Z,4.22
2022-11-19T09:05:31.618Z,4.22
2022-11-19T09:06:31.671Z,4.20
2022-11-19T09:07:31.640Z,4.19
2022-11-19T09:08:31.792Z,4.22
2022-11-19T09:09:31.567Z,4.20
2022-11-19T09:10:31.578Z,4.22
2022-11-19T09:11:31.833Z,4.22
2022-11-19T09:12:31.564Z,4.22
2022-11-19T09:13:31.544Z,4.19
2022-11-19T09:14:31.533Z,4.17
2022-11-19T09:15:31.511Z,4.14
2022-11-19T09:16:31.518Z,4.16
2022-11-19T09:17:31.537Z,4.13
2022-11-19T09:18:32.329Z,4.14
2022-11-19T09:19:31.461Z,4.13
2022-11-19T09:20:32.925Z,4.13
2022-11-19T09:21:31.440Z,4.14
2022-11-19T09:22:31.439Z,4.13
2022-11-19T09:23:31.424Z,4.12
2022-11-19T09:24:31.437Z,4.08
2022-11-19T09:25:31.412Z,4.05
2022-11-19T09:26:31.424Z,4.05
2022-11-19T09:27:31.383Z,4.04
2022-11-19T09:28:31.382Z,4.04
2022-11-19T09:29:31.411Z,4.04
2022-11-19T09:30:31.332Z,3.98
2022-11-19T09:31:32.273Z,3.95
2022-11-19T09:32:31.335Z,3.94
2022-11-19T09:33:31.331Z,3.92
2022-11-19T09:34:31.422Z,3.88
2022-11-19T09:35:31.294Z,3.84
2022-11-19T09:36:31.426Z,3.83
2022-11-19T09:37:31.282Z,3.81
2022-11-19T09:38:31.259Z,3.80
2022-11-19T09:39:31.242Z,3.80
2022-11-19T09:40:31.431Z,3.81
2022-11-19T09:41:31.214Z,3.78
2022-11-19T09:42:31.223Z,3.78
2022-11-19T09:43:31.202Z,3.78
2022-11-19T09:44:31.175Z,3.77
2022-11-19T09:45:31.229Z,3.76
2022-11-19T09:46:31.162Z,3.74
2022-11-19T09:47:31.194Z,3.76
2022-11-19T09:48:31.215Z,3.74
2022-11-19T09:49:31.144Z,3.74
2022-11-19T09:50:31.429Z,3.80
2022-11-19T09:51:31.110Z,3.81
2022-11-19T09:52:31.085Z,3.84
2022-11-19T09:53:31.084Z,3.84
2022-11-19T09:54:32.025Z,3.84
2022-11-19T09:55:31.053Z,3.83
2022-11-19T09:56:31.067Z,3.83
2022-11-19T09:57:31.056Z,3.80
2022-11-19T09:58:31.017Z,3.80
2022-11-19T09:59:31.005Z,3.77
2022-11-19T10:00:30.996Z,3.74
2022-11-19T10:01:31.113Z,3.77
2022-11-19T10:02:31.954Z,3.74
2022-11-19T10:03:33.719Z,3.70
2022-11-19T10:04:31.002Z,3.69
2022-11-19T10:05:30.947Z,3.66
2022-11-19T10:06:30.968Z,3.62
2022-11-19T10:07:30.983Z,3.60
2022-11-19T10:08:30.917Z,3.60
2022-11-19T10:09:30.925Z,3.60
2022-11-19T10:10:31.432Z,3.58
2022-11-19T10:11:30.898Z,3.58
2022-11-19T10:12:30.869Z,3.56
2022-11-19T10:13:30.850Z,3.55
2022-11-19T10:14:30.839Z,3.51
2022-11-19T10:15:36.062Z,3.53
2022-11-19T10:16:31.831Z,3.51
2022-11-19T10:17:30.800Z,3.51
2022-11-19T10:18:30.789Z,3.51
2022-11-19T10:19:30.837Z,3.55
2022-11-19T10:20:30.785Z,3.60
2022-11-19T10:21:30.784Z,3.62
2022-11-19T10:22:30.765Z,3.60
2022-11-19T10:23:30.781Z,3.63
2022-11-19T10:24:30.730Z,3.65
2022-11-19T10:25:30.715Z,3.66
2022-11-19T10:26:30.714Z,3.68
2022-11-19T10:27:30.689Z,3.69
2022-11-19T10:28:30.696Z,3.73
2022-11-19T10:29:30.715Z,3.74
2022-11-19T10:30:30.662Z,3.76
2022-11-19T10:31:30.710Z,3.74
2022-11-19T10:32:30.686Z,3.74
2022-11-19T10:33:30.638Z,3.74
2022-11-19T10:34:30.632Z,3.76
2022-11-19T10:35:30.603Z,3.77
2022-11-19T10:36:30.597Z,3.77
2022-11-19T10:37:30.616Z,3.76
2022-11-19T10:38:30.650Z,3.77
2022-11-19T10:39:30.629Z,3.77
2022-11-19T10:40:30.589Z,3.78
2022-11-19T10:41:30.543Z,3.77
2022-11-19T10:42:31.498Z,3.76
2022-11-19T10:43:30.506Z,3.76
2022-11-19T10:44:30.548Z,3.76
2022-11-19T10:45:30.495Z,3.76
2022-11-19T10:46:30.487Z,3.76
2022-11-19T10:47:30.487Z,3.76
2022-11-19T10:48:30.505Z,3.76
2022-11-19T10:49:30.455Z,3.78
2022-11-19T10:50:30.472Z,3.80
2022-11-19T10:51:30.433Z,3.78
2022-11-19T10:52:30.418Z,3.80
2022-11-19T10:53:30.448Z,3.83
2022-11-19T10:54:30.386Z,3.86
2022-11-19T10:55:30.375Z,3.92
2022-11-19T10:56:30.649Z,3.94
2022-11-19T10:57:30.363Z,3.95
2022-11-19T10:58:31.210Z,3.99
2022-11-19T10:59:30.328Z,4.01
2022-11-19T11:00:30.341Z,4.01
2022-11-19T11:01:30.362Z,4.04
2022-11-19T11:02:30.344Z,4.04
2022-11-19T11:03:30.310Z,4.05
2022-11-19T11:04:30.699Z,4.08
2022-11-19T11:05:30.269Z,4.08
2022-11-19T11:06:30.299Z,4.12
2022-11-19T11:07:30.269Z,4.12
2022-11-19T11:08:30.241Z,4.14
2022-11-19T11:09:30.227Z,4.16
2022-11-19T11:10:30.221Z,4.13
2022-11-19T11:11:30.215Z,4.14
2022-11-19T11:12:30.437Z,4.13
2022-11-19T11:13:30.202Z,4.13
2022-11-19T11:14:30.185Z,4.12
2022-11-19T11:15:30.156Z,4.10
2022-11-19T11:16:35.140Z,4.06
2022-11-19T11:17:31.162Z,4.05
2022-11-19T11:18:31.582Z,4.05
2022-11-19T11:19:30.516Z,4.04
2022-11-19T11:20:31.509Z,4.05
2022-11-19T11:21:30.101Z,4.04
2022-11-19T11:22:31.511Z,4.04
2022-11-19T11:23:30.102Z,4.01
2022-11-19T11:24:30.153Z,4.01
2022-11-19T11:25:30.051Z,4.02
2022-11-19T11:26:30.042Z,4.05
2022-11-19T11:27:30.166Z,4.05
2022-11-19T11:28:30.129Z,4.06
2022-11-19T11:29:30.017Z,4.10
2022-11-19T11:30:31.447Z,4.12
2022-11-19T11:31:30.025Z,4.13
2022-11-19T11:32:30.114Z,4.12
2022-11-19T11:33:30.909Z,4.13
2022-11-19T11:34:30.003Z,4.16
2022-11-19T11:35:29.940Z,4.17
2022-11-19T11:36:29.937Z,4.19
2022-11-19T11:37:30.035Z,4.22
2022-11-19T11:38:29.911Z,4.24
2022-11-19T11:39:30.277Z,4.26
2022-11-19T11:40:30.127Z,4.26
2022-11-19T11:42:04.420Z,4.26
2022-11-19T11:42:30.896Z,4.30
2022-11-19T11:43:29.845Z,4.31
2022-11-19T11:44:31.319Z,4.32
2022-11-19T11:45:29.887Z,4.35
2022-11-19T11:46:29.855Z,4.35
2022-11-19T11:47:29.860Z,4.37
2022-11-19T11:48:31.271Z,4.37
2022-11-19T11:49:29.822Z,4.37
2022-11-19T11:50:30.057Z,4.38
2022-11-19T11:51:29.816Z,4.41
2022-11-19T11:52:29.761Z,4.41
2022-11-19T11:53:29.771Z,4.41
2022-11-19T11:54:30.690Z,4.42
2022-11-19T11:55:30.122Z,4.42
2022-11-19T11:56:29.757Z,4.45
2022-11-19T11:57:29.758Z,4.49
2022-11-19T11:58:29.693Z,4.53
2022-11-19T11:59:29.691Z,4.59
2022-11-19T12:00:30.009Z,4.63
2022-11-19T12:01:29.663Z,4.62
2022-11-19T12:02:30.757Z,4.62
2022-11-19T12:03:29.649Z,4.63
2022-11-19T12:04:29.675Z,4.60
2022-11-19T12:05:29.618Z,4.60
2022-11-19T12:06:29.912Z,4.62
2022-11-19T12:07:29.704Z,4.62
2022-11-19T12:08:29.736Z,4.66
2022-11-19T12:09:29.569Z,4.66
2022-11-19T12:10:29.562Z,4.67
2022-11-19T12:11:29.550Z,4.68
2022-11-19T12:12:29.537Z,4.66
2022-11-19T12:13:29.560Z,4.67
2022-11-19T12:14:29.512Z,4.67
2022-11-19T12:15:29.511Z,4.66
2022-11-19T12:16:29.487Z,4.66
2022-11-19T12:17:29.488Z,4.67
2022-11-19T12:18:29.624Z,4.68
2022-11-19T12:19:29.487Z,4.70
2022-11-19T12:20:30.251Z,4.70
2022-11-19T12:21:29.438Z,4.70
2022-11-19T12:22:30.872Z,4.70
2022-11-19T12:23:29.443Z,4.71
2022-11-19T12:24:29.414Z,4.70
2022-11-19T12:25:29.403Z,4.68
2022-11-19T12:26:29.558Z,4.70
2022-11-19T12:27:29.383Z,4.70
2022-11-19T12:28:29.383Z,4.70
2022-11-19T12:29:29.345Z,4.70
2022-11-19T12:30:29.334Z,4.71
2022-11-19T12:31:30.148Z,4.74
2022-11-19T12:32:29.323Z,4.75
2022-11-19T12:33:29.303Z,4.73
2022-11-19T12:34:29.613Z,4.74
2022-11-19T12:35:29.280Z,4.74
2022-11-19T12:36:29.269Z,4.75
2022-11-19T12:37:29.514Z,4.77
2022-11-19T12:38:29.477Z,4.80
2022-11-19T12:39:29.454Z,4.84
2022-11-19T12:40:38.518Z,4.86
2022-11-19T12:41:30.215Z,4.90
2022-11-19T12:42:29.206Z,4.96
2022-11-19T12:43:30.107Z,4.97
2022-11-19T12:44:29.184Z,5.02
2022-11-19T12:45:29.768Z,5.10
2022-11-19T12:46:29.149Z,5.17
2022-11-19T12:47:29.807Z,5.28
2022-11-19T12:48:29.251Z,5.36
2022-11-19T12:49:29.157Z,5.43
2022-11-19T12:50:29.621Z,5.50
2022-11-19T12:51:29.676Z,5.56
2022-11-19T12:52:29.233Z,5.57
2022-11-19T12:53:29.096Z,5.61
2022-11-19T12:54:34.945Z,5.65
2022-11-19T12:55:30.064Z,5.61
2022-11-19T12:56:29.102Z,5.57
2022-11-19T12:57:29.172Z,5.56
2022-11-19T12:58:29.030Z,5.50
2022-11-19T12:59:29.080Z,5.44
2022-11-19T13:00:29.280Z,5.38
2022-11-19T13:01:29.534Z,5.30
2022-11-19T13:02:29.811Z,5.28
2022-11-19T13:03:28.974Z,5.26
2022-11-19T13:04:28.958Z,5.23
2022-11-19T13:05:29.007Z,5.21
2022-11-19T13:06:28.939Z,5.21
2022-11-19T13:07:29.003Z,5.20
2022-11-19T13:08:29.026Z,5.18
2022-11-19T13:09:28.940Z,5.17
2022-11-19T13:10:28.934Z,5.17
2022-11-19T13:11:28.893Z,5.15
2022-11-19T13:12:28.891Z,5.23
2022-11-19T13:13:28.865Z,5.28
2022-11-19T13:14:28.878Z,5.38
2022-11-19T13:15:28.884Z,5.48
2022-11-19T13:16:28.839Z,5.54
2022-11-19T13:17:28.854Z,5.53
2022-11-19T13:18:28.815Z,5.53